首页
METAR-TAF:

METAR-TAF

机场 :

仁川国际机场, 大韩民国

仁川國際機場

纬度: 37-28N, 经度: 126-27E, 海拔: 7米

当前天气观测

该预报发布于22分钟前的22:00 UTC
风速4节,风向西南
温度 11°C
湿度 66%
气压 1015 hPa
能见度10公里或以上
1500米以下无云,无积雨云

METAR: RKSI 252200Z 22004KT CAVOK 11/05 Q1015 NOSIG

时间: 07:22 (22:22 UTC)

预报

该预报发布于5小时和22分钟前的17:00 UTC
预报有效从25日的 18点(UTC)到 26日的 24点(UTC)
风速5节,风向
能見度: 6000
成为
从 26日的 03点(UTC)到 26日的 04点(UTC)
风速7节,风向西转西南
能见度10公里或以上
1500米以下无云,无积雨云
成为
从 26日的 11点(UTC)到 26日的 12点(UTC)
风速5节,风向
能見度: 6000
成为
从 26日的 16点(UTC)到 26日的 17点(UTC)
能見度: 4200
轻雾
成为
从 26日的 20点(UTC)到 26日的 21点(UTC)
能見度: 6000

TAF: RKSI 251700Z 2518/2624 19005KT 6000 NSC TN09/2521Z TX17/2605Z TN09/2621Z BECMG 2603/2604 25007KT CAVOK BECMG 2611/2612 18005KT 6000 NSC BECMG 2616/2617 4200 BR BECMG 2620/2621 6000 NSW

超过4000个机场的气象观测和天气预报(METAR&TAF报告)。

可查询的气象台以黄色和红色小点在地图上表示。

将鼠标移到小点上方,可查看气象台名称。

然后点击查看天气观测和预报。

如需切换地图:点击带黑十字的绿色按钮放大地图;点击带横线的绿色按钮缩小地图;或者点击绿色箭头查看邻近地区的地图。


METAR-TAF: